sensor_id;sensor_type;location;lat;lon;timestamp;pressure;altitude;pressure_sealevel;temperature;humidity
29433;BME280;16405;53.964;13.448;2023-01-28T00:01:16;102434.19;;;1.12;90.58
29433;BME280;16405;53.964;13.448;2023-01-28T00:03:49;102429.88;;;1.12;90.28
29433;BME280;16405;53.964;13.448;2023-01-28T00:06:16;102428.19;;;1.13;90.61
29433;BME280;16405;53.964;13.448;2023-01-28T00:08:44;102431.47;;;1.06;90.47
29433;BME280;16405;53.964;13.448;2023-01-28T00:11:18;102435.06;;;1.11;90.53
29433;BME280;16405;53.964;13.448;2023-01-28T00:13:50;102434.19;;;1.12;90.70
29433;BME280;16405;53.964;13.448;2023-01-28T00:16:17;102428.19;;;1.13;89.95
29433;BME280;16405;53.964;13.448;2023-01-28T00:18:43;102427.22;;;1.09;89.94
29433;BME280;16405;53.964;13.448;2023-01-28T00:21:12;102427.28;;;1.11;90.38
29433;BME280;16405;53.964;13.448;2023-01-28T00:23:45;102428.88;;;1.06;90.64
29433;BME280;16405;53.964;13.448;2023-01-28T00:26:14;102420.28;;;1.07;90.53
29433;BME280;16405;53.964;13.448;2023-01-28T00:28:41;102420.19;;;1.03;90.51
29433;BME280;16405;53.964;13.448;2023-01-28T00:31:09;102413.28;;;1.02;90.39
29433;BME280;16405;53.964;13.448;2023-01-28T00:33:36;102420.19;;;1.03;90.06
29433;BME280;16405;53.964;13.448;2023-01-28T00:36:03;102413.31;;;1.06;89.86
29433;BME280;16405;53.964;13.448;2023-01-28T00:38:31;102414.22;;;1.08;89.81
29433;BME280;16405;53.964;13.448;2023-01-28T00:41:18;102414.22;;;1.08;89.53
29433;BME280;16405;53.964;13.448;2023-01-28T00:43:47;102415.09;;;1.07;89.74
29433;BME280;16405;53.964;13.448;2023-01-28T00:46:20;102415.13;;;1.10;89.33
29433;BME280;16405;53.964;13.448;2023-01-28T00:48:49;102424.63;;;1.09;89.21
29433;BME280;16405;53.964;13.448;2023-01-28T00:51:17;102417.81;;;1.13;88.85
29433;BME280;16405;53.964;13.448;2023-01-28T00:53:50;102413.41;;;1.09;89.15
29433;BME280;16405;53.964;13.448;2023-01-28T00:56:17;102413.53;;;1.15;89.43
29433;BME280;16405;53.964;13.448;2023-01-28T00:58:44;102421.34;;;1.18;88.92
29433;BME280;16405;53.964;13.448;2023-01-28T01:01:19;102417.94;;;1.20;88.93
29433;BME280;16405;53.964;13.448;2023-01-28T01:03:46;102415.34;;;1.20;88.73
29433;BME280;16405;53.964;13.448;2023-01-28T01:06:14;102414.47;;;1.20;88.53
29433;BME280;16405;53.964;13.448;2023-01-28T01:08:43;102418.75;;;1.18;89.06
29433;BME280;16405;53.964;13.448;2023-01-28T01:11:14;102420.41;;;1.14;88.69
29433;BME280;16405;53.964;13.448;2023-01-28T01:13:40;102427.28;;;1.11;88.59
29433;BME280;16405;53.964;13.448;2023-01-28T01:16:15;102425.59;;;1.13;89.07
29433;BME280;16405;53.964;13.448;2023-01-28T01:18:44;102421.22;;;1.12;89.39
29433;BME280;16405;53.964;13.448;2023-01-28T01:21:16;102419.53;;;1.14;89.18
29433;BME280;16405;53.964;13.448;2023-01-28T01:23:45;102421.25;;;1.13;89.23
29433;BME280;16405;53.964;13.448;2023-01-28T01:26:12;102415.25;;;1.16;89.11
29433;BME280;16405;53.964;13.448;2023-01-28T01:28:39;102420.53;;;1.19;88.97
29433;BME280;16405;53.964;13.448;2023-01-28T01:31:12;102422.28;;;1.21;88.92
29433;BME280;16405;53.964;13.448;2023-01-28T01:33:46;102426.19;;;1.01;89.06
29433;BME280;16405;53.964;13.448;2023-01-28T01:36:14;102425.16;;;0.91;89.35
29433;BME280;16405;53.964;13.448;2023-01-28T01:38:44;102418.38;;;0.98;89.76
29433;BME280;16405;53.964;13.448;2023-01-28T01:41:37;102414.97;;;1.00;89.70
29433;BME280;16405;53.964;13.448;2023-01-28T01:44:05;102418.50;;;1.06;89.85
29433;BME280;16405;53.964;13.448;2023-01-28T01:46:44;102402.06;;;1.05;89.18
29433;BME280;16405;53.964;13.448;2023-01-28T01:49:25;102403.81;;;1.05;89.29
29433;BME280;16405;53.964;13.448;2023-01-28T01:52:06;102406.34;;;1.03;89.16
29433;BME280;16405;53.964;13.448;2023-01-28T01:54:37;102404.47;;;0.94;89.91
29433;BME280;16405;53.964;13.448;2023-01-28T01:57:20;102406.78;;;0.80;89.73
29433;BME280;16405;53.964;13.448;2023-01-28T01:59:46;102399.75;;;0.75;90.15
29433;BME280;16405;53.964;13.448;2023-01-28T02:02:13;102398.97;;;0.79;90.43
29433;BME280;16405;53.964;13.448;2023-01-28T02:04:46;102393.78;;;0.79;90.27
29433;BME280;16405;53.964;13.448;2023-01-28T02:07:14;102396.38;;;0.79;90.56
29433;BME280;16405;53.964;13.448;2023-01-28T02:09:41;102396.38;;;0.79;90.59
29433;BME280;16405;53.964;13.448;2023-01-28T02:12:16;102398.91;;;0.77;90.60
29433;BME280;16405;53.964;13.448;2023-01-28T02:14:55;102402.09;;;0.64;90.93
29433;BME280;16405;53.964;13.448;2023-01-28T02:17:23;102403.97;;;0.70;90.96
29433;BME280;16405;53.964;13.448;2023-01-28T02:20:22;102410.09;;;0.75;91.29
29433;BME280;16405;53.964;13.448;2023-01-28T02:24:21;102398.91;;;0.76;91.02
29433;BME280;16405;53.964;13.448;2023-01-28T02:32:56;102414.06;;;0.57;90.85
29433;BME280;16405;53.964;13.448;2023-01-28T02:35:46;102404.78;;;0.67;91.00
29433;BME280;16405;53.964;13.448;2023-01-28T02:38:31;102403.25;;;0.77;90.50
29433;BME280;16405;53.964;13.448;2023-01-28T02:41:10;102399.00;;;0.82;90.35
29433;BME280;16405;53.964;13.448;2023-01-28T02:43:46;102394.69;;;0.81;90.08
29433;BME280;16405;53.964;13.448;2023-01-28T02:49:29;102399.13;;;0.88;89.40
29433;BME280;16405;53.964;13.448;2023-01-28T03:07:35;102392.81;;;0.75;89.90
29433;BME280;16405;53.964;13.448;2023-01-28T03:10:11;102397.00;;;0.67;89.82
29433;BME280;16405;53.964;13.448;2023-01-28T03:12:48;102392.72;;;0.71;90.09
29433;BME280;16405;53.964;13.448;2023-01-28T03:15:47;102390.09;;;0.68;90.09
29433;BME280;16405;53.964;13.448;2023-01-28T03:18:55;102380.75;;;0.77;90.03
29433;BME280;16405;53.964;13.448;2023-01-28T03:21:41;102385.09;;;0.77;90.03
29433;BME280;16405;53.964;13.448;2023-01-28T03:24:29;102384.09;;;0.70;90.34
29433;BME280;16405;53.964;13.448;2023-01-28T03:27:32;102382.34;;;0.69;90.83
29433;BME280;16405;53.964;13.448;2023-01-28T03:30:36;102384.03;;;0.69;90.96
29433;BME280;16405;53.964;13.448;2023-01-28T03:33:23;102377.13;;;0.68;91.04
29433;BME280;16405;53.964;13.448;2023-01-28T03:36:11;102377.84;;;0.60;91.53
29433;BME280;16405;53.964;13.448;2023-01-28T03:38:55;102373.53;;;0.63;90.95
29433;BME280;16405;53.964;13.448;2023-01-28T03:41:24;102375.34;;;0.65;90.65
29433;BME280;16405;53.964;13.448;2023-01-28T03:43:51;102388.41;;;0.70;90.20
29433;BME280;16405;53.964;13.448;2023-01-28T03:46:21;102384.13;;;0.73;89.95
29433;BME280;16405;53.964;13.448;2023-01-28T03:48:47;102383.34;;;0.76;90.32
29433;BME280;16405;53.964;13.448;2023-01-28T03:51:13;102392.03;;;0.78;89.87
29433;BME280;16405;53.964;13.448;2023-01-28T03:53:40;102383.38;;;0.77;90.18
29433;BME280;16405;53.964;13.448;2023-01-28T03:56:06;102381.72;;;0.81;89.88
29433;BME280;16405;53.964;13.448;2023-01-28T03:58:42;102387.81;;;0.83;89.45
29433;BME280;16405;53.964;13.448;2023-01-28T04:01:18;102385.16;;;0.80;89.95
29433;BME280;16405;53.964;13.448;2023-01-28T04:03:45;102380.75;;;0.77;89.87
29433;BME280;16405;53.964;13.448;2023-01-28T04:06:10;102386.03;;;0.80;89.92
29433;BME280;16405;53.964;13.448;2023-01-28T04:08:36;102388.63;;;0.80;89.90
29433;BME280;16405;53.964;13.448;2023-01-28T04:11:02;102380.72;;;0.74;89.78
29433;BME280;16405;53.964;13.448;2023-01-28T04:13:41;102379.59;;;0.61;90.13
29433;BME280;16405;53.964;13.448;2023-01-28T04:16:07;102380.53;;;0.65;90.13
29433;BME280;16405;53.964;13.448;2023-01-28T04:18:36;102374.53;;;0.68;89.74
29433;BME280;16405;53.964;13.448;2023-01-28T04:21:02;102372.75;;;0.65;89.39
29433;BME280;16405;53.964;13.448;2023-01-28T04:23:27;102379.78;;;0.71;89.07
29433;BME280;16405;53.964;13.448;2023-01-28T04:25:54;102385.81;;;0.70;88.37
29433;BME280;16405;53.964;13.448;2023-01-28T04:28:20;102378.94;;;0.72;88.90
29433;BME280;16405;53.964;13.448;2023-01-28T04:30:47;102383.22;;;0.70;88.87
29433;BME280;16405;53.964;13.448;2023-01-28T04:35:59;102389.22;;;0.67;88.27
29433;BME280;16405;53.964;13.448;2023-01-28T04:38:25;102385.63;;;0.60;87.88
29433;BME280;16405;53.964;13.448;2023-01-28T04:40:52;102390.91;;;0.65;87.93
29433;BME280;16405;53.964;13.448;2023-01-28T04:43:25;102397.81;;;0.66;87.96
29433;BME280;16405;53.964;13.448;2023-01-28T04:45:51;102387.53;;;0.69;88.05
29433;BME280;16405;53.964;13.448;2023-01-28T04:48:17;102386.59;;;0.66;87.84
29433;BME280;16405;53.964;13.448;2023-01-28T04:50:44;102388.41;;;0.71;87.77
29433;BME280;16405;53.964;13.448;2023-01-28T04:53:10;102386.72;;;0.73;87.86
29433;BME280;16405;53.964;13.448;2023-01-28T04:55:37;102385.94;;;0.76;87.42
29433;BME280;16405;53.964;13.448;2023-01-28T04:58:12;102386.78;;;0.75;87.41
29433;BME280;16405;53.964;13.448;2023-01-28T05:00:37;102390.22;;;0.75;87.66
29433;BME280;16405;53.964;13.448;2023-01-28T05:03:03;102392.03;;;0.78;87.78
29433;BME280;16405;53.964;13.448;2023-01-28T05:05:29;102380.75;;;0.76;87.37
29433;BME280;16405;53.964;13.448;2023-01-28T05:08:03;102376.13;;;0.61;87.69
29433;BME280;16405;53.964;13.448;2023-01-28T05:10:28;102376.03;;;0.56;87.50
29433;BME280;16405;53.964;13.448;2023-01-28T05:12:54;102382.00;;;0.54;87.23
29433;BME280;16405;53.964;13.448;2023-01-28T05:15:23;102381.09;;;0.52;86.79
29433;BME280;16405;53.964;13.448;2023-01-28T05:17:54;102376.00;;;0.55;86.37
29433;BME280;16405;53.964;13.448;2023-01-28T05:20:21;102375.81;;;0.47;86.03
29433;BME280;16405;53.964;13.448;2023-01-28T05:22:47;102383.69;;;0.50;85.45
29433;BME280;16405;53.964;13.448;2023-01-28T05:25:15;102373.22;;;0.47;85.22
29433;BME280;16405;53.964;13.448;2023-01-28T05:27:49;102380.22;;;0.51;84.90
29433;BME280;16405;53.964;13.448;2023-01-28T05:30:17;102376.81;;;0.52;84.79
29433;BME280;16405;53.964;13.448;2023-01-28T05:32:55;102369.72;;;0.45;84.05
29433;BME280;16405;53.964;13.448;2023-01-28T05:35:28;102371.53;;;0.49;83.63
29433;BME280;16405;53.964;13.448;2023-01-28T05:37:54;102365.59;;;0.53;84.22
29433;BME280;16405;53.964;13.448;2023-01-28T05:40:20;102373.44;;;0.56;83.70
29433;BME280;16405;53.964;13.448;2023-01-28T05:42:45;102368.94;;;0.49;83.49
29433;BME280;16405;53.964;13.448;2023-01-28T05:45:12;102369.78;;;0.47;82.54
29433;BME280;16405;53.964;13.448;2023-01-28T05:47:44;102366.31;;;0.46;82.33
29433;BME280;16405;53.964;13.448;2023-01-28T05:50:12;102368.13;;;0.50;81.87
29433;BME280;16405;53.964;13.448;2023-01-28T05:52:39;102372.44;;;0.51;81.93
29433;BME280;16405;53.964;13.448;2023-01-28T05:55:05;102375.13;;;0.54;82.39
29433;BME280;16405;53.964;13.448;2023-01-28T05:57:38;102369.13;;;0.57;82.72
29433;BME280;16405;53.964;13.448;2023-01-28T06:00:05;102370.94;;;0.63;82.67
29433;BME280;16405;53.964;13.448;2023-01-28T06:02:31;102376.13;;;0.63;83.05
29433;BME280;16405;53.964;13.448;2023-01-28T06:04:59;102370.91;;;0.59;82.93
29433;BME280;16405;53.964;13.448;2023-01-28T06:07:27;102369.03;;;0.54;83.14
29433;BME280;16405;53.964;13.448;2023-01-28T06:09:54;102365.53;;;0.50;83.42
29433;BME280;16405;53.964;13.448;2023-01-28T06:12:20;102369.03;;;0.52;82.89
29433;BME280;16405;53.964;13.448;2023-01-28T06:14:46;102363.72;;;0.46;83.02
29433;BME280;16405;53.964;13.448;2023-01-28T06:17:12;102374.09;;;0.46;83.86
29433;BME280;16405;53.964;13.448;2023-01-28T06:19:45;102367.09;;;0.42;83.87
29433;BME280;16405;53.964;13.448;2023-01-28T06:22:11;102367.75;;;0.33;83.78
29433;BME280;16405;53.964;13.448;2023-01-28T06:24:36;102359.97;;;0.33;84.24
29433;BME280;16405;53.964;13.448;2023-01-28T06:27:02;102360.81;;;0.32;84.39
29433;BME280;16405;53.964;13.448;2023-01-28T06:29:28;102364.19;;;0.28;83.87
29433;BME280;16405;53.964;13.448;2023-01-28T06:31:59;102370.16;;;0.26;84.05
29433;BME280;16405;53.964;13.448;2023-01-28T06:34:25;102367.53;;;0.23;84.02
29433;BME280;16405;53.964;13.448;2023-01-28T06:36:52;102364.88;;;0.19;84.27
29433;BME280;16405;53.964;13.448;2023-01-28T06:39:19;102367.41;;;0.18;84.58
29433;BME280;16405;53.964;13.448;2023-01-28T06:41:54;102376.06;;;0.18;84.52
29433;BME280;16405;53.964;13.448;2023-01-28T06:44:20;102376.81;;;0.14;84.63
29433;BME280;16405;53.964;13.448;2023-01-28T06:46:53;102366.47;;;0.14;84.76
29433;BME280;16405;53.964;13.448;2023-01-28T06:49:25;102371.66;;;0.14;84.18
29433;BME280;16405;53.964;13.448;2023-01-28T06:52:06;102376.94;;;0.19;84.64
29433;BME280;16405;53.964;13.448;2023-01-28T06:54:58;102376.13;;;0.22;84.60
29433;BME280;16405;53.964;13.448;2023-01-28T06:57:26;102380.63;;;0.29;84.43
29433;BME280;16405;53.964;13.448;2023-01-28T07:00:07;102376.34;;;0.31;83.63
29433;BME280;16405;53.964;13.448;2023-01-28T07:02:46;102389.31;;;0.31;83.44
29433;BME280;16405;53.964;13.448;2023-01-28T07:05:34;102391.91;;;0.31;83.33
29433;BME280;16405;53.964;13.448;2023-01-28T07:08:37;102379.56;;;0.20;82.66
29433;BME280;16405;53.964;13.448;2023-01-28T07:11:14;102376.91;;;0.17;82.20
29433;BME280;16405;53.964;13.448;2023-01-28T07:14:07;102369.19;;;0.20;82.75
29433;BME280;16405;53.964;13.448;2023-01-28T07:16:35;102370.88;;;0.18;82.17
29433;BME280;16405;53.964;13.448;2023-01-28T07:19:30;102380.44;;;0.21;81.76
29433;BME280;16405;53.964;13.448;2023-01-28T07:21:56;102381.19;;;0.15;81.48
29433;BME280;16405;53.964;13.448;2023-01-28T07:24:33;102388.06;;;0.15;81.53
29433;BME280;16405;53.964;13.448;2023-01-28T07:27:13;102389.69;;;0.10;81.34
29433;BME280;16405;53.964;13.448;2023-01-28T07:29:39;102385.19;;;0.03;81.12
29433;BME280;16405;53.964;13.448;2023-01-28T07:32:05;102386.06;;;0.03;81.04
29433;BME280;16405;53.964;13.448;2023-01-28T07:34:41;102385.09;;;-0.02;80.81
29433;BME280;16405;53.964;13.448;2023-01-28T07:37:08;102392.72;;;-0.07;80.99
29433;BME280;16405;53.964;13.448;2023-01-28T07:39:34;102393.47;;;-0.12;80.77
29433;BME280;16405;53.964;13.448;2023-01-28T07:42:06;102383.78;;;-0.19;80.93
29433;BME280;16405;53.964;13.448;2023-01-28T07:44:32;102388.91;;;-0.23;80.99
29433;BME280;16405;53.964;13.448;2023-01-28T07:46:59;102403.38;;;-0.31;81.33
29433;BME280;16405;53.964;13.448;2023-01-28T07:49:24;102399.81;;;-0.36;81.19
29433;BME280;16405;53.964;13.448;2023-01-28T07:51:50;102403.16;;;-0.40;81.76
29433;BME280;16405;53.964;13.448;2023-01-28T07:54:22;102399.56;;;-0.45;82.36
29433;BME280;16405;53.964;13.448;2023-01-28T07:56:48;102400.28;;;-0.51;81.79
29433;BME280;16405;53.964;13.448;2023-01-28T07:59:14;102396.72;;;-0.56;82.28
29433;BME280;16405;53.964;13.448;2023-01-28T08:01:39;102401.78;;;-0.59;82.08
29433;BME280;16405;53.964;13.448;2023-01-28T08:04:05;102408.72;;;-0.58;82.53
29433;BME280;16405;53.964;13.448;2023-01-28T08:06:31;102401.03;;;-0.55;82.38
29433;BME280;16405;53.964;13.448;2023-01-28T08:09:03;102413.28;;;-0.48;81.97
29433;BME280;16405;53.964;13.448;2023-01-28T08:11:31;102418.91;;;-0.31;81.89
29433;BME280;16405;53.964;13.448;2023-01-28T08:13:57;102412.44;;;-0.13;82.01
29433;BME280;16405;53.964;13.448;2023-01-28T08:16:23;102419.13;;;0.13;81.30
29433;BME280;16405;53.964;13.448;2023-01-28T08:18:58;102430.34;;;0.52;81.14
29433;BME280;16405;53.964;13.448;2023-01-28T08:21:36;102424.94;;;0.82;80.77
29433;BME280;16405;53.964;13.448;2023-01-28T08:24:17;102435.06;;;1.12;79.67
29433;BME280;16405;53.964;13.448;2023-01-28T08:26:47;102435.56;;;1.37;78.97
29433;BME280;16405;53.964;13.448;2023-01-28T08:29:20;102432.34;;;1.50;78.41
29433;BME280;16405;53.964;13.448;2023-01-28T08:31:46;102430.84;;;1.63;77.68
29433;BME280;16405;53.964;13.448;2023-01-28T08:34:27;102437.91;;;1.72;76.87
29433;BME280;16405;53.964;13.448;2023-01-28T08:37:10;102442.38;;;1.80;76.09
29433;BME280;16405;53.964;13.448;2023-01-28T08:39:48;102440.72;;;1.85;75.66
29433;BME280;16405;53.964;13.448;2023-01-28T08:42:25;102446.22;;;2.01;75.80
29433;BME280;16405;53.964;13.448;2023-01-28T08:44:55;102456.78;;;2.12;75.60
29433;BME280;16405;53.964;13.448;2023-01-28T08:47:29;102458.66;;;2.22;75.83
29433;BME280;16405;53.964;13.448;2023-01-28T08:49:55;102464.84;;;2.30;76.19
29433;BME280;16405;53.964;13.448;2023-01-28T08:52:46;102467.50;;;2.35;75.98
29433;BME280;16405;53.964;13.448;2023-01-28T08:55:16;102464.97;;;2.38;76.32
29433;BME280;16405;53.964;13.448;2023-01-28T09:00:20;102476.31;;;2.43;76.83
29433;BME280;16405;53.964;13.448;2023-01-28T09:02:49;102489.38;;;2.47;76.48
29433;BME280;16405;53.964;13.448;2023-01-28T09:05:27;102489.28;;;2.41;75.52
29433;BME280;16405;53.964;13.448;2023-01-28T09:08:15;102496.25;;;2.42;75.43
29433;BME280;16405;53.964;13.448;2023-01-28T09:10:47;102491.00;;;2.41;75.31
29433;BME280;16405;53.964;13.448;2023-01-28T09:13:39;102492.84;;;2.46;75.32
29433;BME280;16405;53.964;13.448;2023-01-28T09:16:18;102502.38;;;2.47;74.85
29433;BME280;16405;53.964;13.448;2023-01-28T09:22:47;102503.38;;;2.56;74.63
29433;BME280;16405;53.964;13.448;2023-01-28T09:25:39;102494.56;;;2.47;74.26
29433;BME280;16405;53.964;13.448;2023-01-28T09:31:49;102499.81;;;2.49;73.57
29433;BME280;16405;53.964;13.448;2023-01-28T09:34:28;102503.31;;;2.51;73.78
29433;BME280;16405;53.964;13.448;2023-01-28T09:37:07;102498.09;;;2.53;73.81
29433;BME280;16405;53.964;13.448;2023-01-28T09:51:01;102503.34;;;2.54;73.56
29433;BME280;16405;53.964;13.448;2023-01-28T09:57:59;102502.66;;;2.67;72.86
29433;BME280;16405;53.964;13.448;2023-01-28T10:01:39;102504.53;;;2.75;73.09
29433;BME280;16405;53.964;13.448;2023-01-28T10:15:21;102505.63;;;2.94;73.12
29433;BME280;16405;53.964;13.448;2023-01-28T10:41:57;102482.81;;;2.74;70.91
29433;BME280;16405;53.964;13.448;2023-01-28T10:51:49;102480.16;;;2.68;72.74
29433;BME280;16405;53.964;13.448;2023-01-28T10:54:28;102480.13;;;2.66;73.61
29433;BME280;16405;53.964;13.448;2023-01-28T11:10:57;102460.91;;;3.22;74.07
29433;BME280;16405;53.964;13.448;2023-01-28T11:13:56;102450.72;;;3.44;74.00
29433;BME280;16405;53.964;13.448;2023-01-28T11:24:38;102419.94;;;3.98;71.09
29433;BME280;16405;53.964;13.448;2023-01-28T11:27:29;102413.75;;;3.86;70.88
29433;BME280;16405;53.964;13.448;2023-01-28T11:30:00;102407.69;;;3.87;70.96
29433;BME280;16405;53.964;13.448;2023-01-28T11:42:41;102388.81;;;4.19;70.39
29433;BME280;16405;53.964;13.448;2023-01-28T11:53:14;102385.34;;;4.22;71.67
29433;BME280;16405;53.964;13.448;2023-01-28T12:26:29;102297.97;;;3.49;72.66
29433;BME280;16405;53.964;13.448;2023-01-28T12:50:48;102292.25;;;2.92;75.57
29433;BME280;16405;53.964;13.448;2023-01-28T12:54:38;102312.97;;;2.84;75.97
29433;BME280;16405;53.964;13.448;2023-01-28T12:57:31;102312.03;;;2.75;75.49
29433;BME280;16405;53.964;13.448;2023-01-28T13:00:59;102314.47;;;2.62;76.78
29433;BME280;16405;53.964;13.448;2023-01-28T13:04:09;102294.59;;;2.67;77.21
29433;BME280;16405;53.964;13.448;2023-01-28T13:07:51;102302.25;;;2.57;77.53
29433;BME280;16405;53.964;13.448;2023-01-28T13:11:02;102301.31;;;2.50;77.18
29433;BME280;16405;53.964;13.448;2023-01-28T13:13:59;102299.66;;;2.55;76.33
29433;BME280;16405;53.964;13.448;2023-01-28T13:29:30;102290.66;;;2.29;76.03
29433;BME280;16405;53.964;13.448;2023-01-28T13:33:00;102300.19;;;2.28;76.30
29433;BME280;16405;53.964;13.448;2023-01-28T13:35:39;102302.75;;;2.26;76.34
29433;BME280;16405;53.964;13.448;2023-01-28T13:38:20;102298.31;;;2.18;76.39
29433;BME280;16405;53.964;13.448;2023-01-28T13:56:29;102288.38;;;2.55;76.02
29433;BME280;16405;53.964;13.448;2023-01-28T14:19:40;102306.63;;;1.36;77.57
29433;BME280;16405;53.964;13.448;2023-01-28T14:22:45;102310.91;;;1.34;77.69
29433;BME280;16405;53.964;13.448;2023-01-28T14:32:29;102307.97;;;1.14;78.27
29433;BME280;16405;53.964;13.448;2023-01-28T14:35:39;102319.31;;;1.19;78.28
29433;BME280;16405;53.964;13.448;2023-01-28T14:42:46;102307.84;;;1.08;78.61
29433;BME280;16405;53.964;13.448;2023-01-28T15:00:28;102294.28;;;0.74;79.89
29433;BME280;16405;53.964;13.448;2023-01-28T15:03:19;102298.50;;;0.69;80.08
29433;BME280;16405;53.964;13.448;2023-01-28T15:12:39;102308.28;;;0.39;81.31
29433;BME280;16405;53.964;13.448;2023-01-28T15:15:47;102301.22;;;0.32;81.44
29433;BME280;16405;53.964;13.448;2023-01-28T15:19:08;102281.16;;;0.24;81.59
29433;BME280;16405;53.964;13.448;2023-01-28T15:22:17;102281.88;;;0.16;81.92
29433;BME280;16405;53.964;13.448;2023-01-28T15:25:29;102274.72;;;0.03;82.61
29433;BME280;16405;53.964;13.448;2023-01-28T15:28:39;102279.69;;;-0.06;82.76
29433;BME280;16405;53.964;13.448;2023-01-28T15:31:48;102276.00;;;-0.16;83.52
29433;BME280;16405;53.964;13.448;2023-01-28T15:34:19;102280.19;;;-0.23;83.30
29433;BME280;16405;53.964;13.448;2023-01-28T15:36:59;102285.09;;;-0.33;84.03
29433;BME280;16405;53.964;13.448;2023-01-28T15:44:05;102279.38;;;-0.58;84.72
29433;BME280;16405;53.964;13.448;2023-01-28T15:52:59;102305.50;;;-0.80;84.93
29433;BME280;16405;53.964;13.448;2023-01-28T15:59:40;102281.78;;;-0.99;85.87
29433;BME280;16405;53.964;13.448;2023-01-28T16:02:21;102277.41;;;-1.01;86.31
29433;BME280;16405;53.964;13.448;2023-01-28T16:12:28;102299.78;;;-1.04;87.12
29433;BME280;16405;53.964;13.448;2023-01-28T16:15:52;102306.59;;;-1.06;87.23
29433;BME280;16405;53.964;13.448;2023-01-28T16:23:20;102304.78;;;-1.08;87.50
29433;BME280;16405;53.964;13.448;2023-01-28T16:36:11;102253.25;;;-1.35;87.22
29433;BME280;16405;53.964;13.448;2023-01-28T16:45:28;102257.41;;;-1.40;88.22
29433;BME280;16405;53.964;13.448;2023-01-28T16:48:09;102266.97;;;-1.38;87.62
29433;BME280;16405;53.964;13.448;2023-01-28T16:57:08;102257.91;;;-1.22;88.30
29433;BME280;16405;53.964;13.448;2023-01-28T17:01:00;102261.81;;;-1.05;88.96
29433;BME280;16405;53.964;13.448;2023-01-28T17:03:37;102248.28;;;-0.94;88.42
29433;BME280;16405;53.964;13.448;2023-01-28T17:06:30;102259.72;;;-0.85;88.80
29433;BME280;16405;53.964;13.448;2023-01-28T17:08:58;102266.81;;;-0.77;88.23
29433;BME280;16405;53.964;13.448;2023-01-28T17:11:49;102262.66;;;-0.71;88.48
29433;BME280;16405;53.964;13.448;2023-01-28T17:14:29;102264.56;;;-0.64;88.30
29433;BME280;16405;53.964;13.448;2023-01-28T17:20:27;102270.03;;;-0.50;88.12
29433;BME280;16405;53.964;13.448;2023-01-28T17:23:18;102280.59;;;-0.42;87.56
29433;BME280;16405;53.964;13.448;2023-01-28T17:26:20;102278.22;;;-0.33;87.74
29433;BME280;16405;53.964;13.448;2023-01-28T17:29:30;102266.22;;;-0.29;87.05
29433;BME280;16405;53.964;13.448;2023-01-28T17:32:10;102267.19;;;-0.24;86.85
29433;BME280;16405;53.964;13.448;2023-01-28T17:35:08;102250.84;;;-0.23;86.72
29433;BME280;16405;53.964;13.448;2023-01-28T17:38:02;102254.38;;;-0.18;86.49
29433;BME280;16405;53.964;13.448;2023-01-28T17:40:41;102269.09;;;-0.15;86.04
29433;BME280;16405;53.964;13.448;2023-01-28T17:43:39;102263.16;;;-0.13;86.47
29433;BME280;16405;53.964;13.448;2023-01-28T17:46:18;102261.47;;;-0.11;86.50
29433;BME280;16405;53.964;13.448;2023-01-28T17:49:16;102248.47;;;-0.12;85.90
29433;BME280;16405;53.964;13.448;2023-01-28T17:52:09;102277.00;;;-0.11;86.02
29433;BME280;16405;53.964;13.448;2023-01-28T17:55:08;102262.34;;;-0.10;86.03
29433;BME280;16405;53.964;13.448;2023-01-28T17:58:29;102254.56;;;-0.09;86.30
29433;BME280;16405;53.964;13.448;2023-01-28T18:02:00;102247.72;;;-0.08;85.94
29433;BME280;16405;53.964;13.448;2023-01-28T18:04:29;102251.22;;;-0.06;86.14
29433;BME280;16405;53.964;13.448;2023-01-28T18:07:09;102252.97;;;-0.04;86.43
29433;BME280;16405;53.964;13.448;2023-01-28T18:09:48;102253.03;;;-0.02;86.03
29433;BME280;16405;53.964;13.448;2023-01-28T18:12:40;102243.56;;;0.00;86.35
29433;BME280;16405;53.964;13.448;2023-01-28T18:15:17;102242.72;;;0.01;85.84
29433;BME280;16405;53.964;13.448;2023-01-28T18:17:48;102241.88;;;0.02;85.93
29433;BME280;16405;53.964;13.448;2023-01-28T18:20:36;102231.41;;;-0.03;85.65
29433;BME280;16405;53.964;13.448;2023-01-28T18:23:18;102223.63;;;-0.04;85.88
29433;BME280;16405;53.964;13.448;2023-01-28T18:25:47;102227.81;;;-0.09;85.40
29433;BME280;16405;53.964;13.448;2023-01-28T18:28:57;102227.72;;;-0.14;85.79
29433;BME280;16405;53.964;13.448;2023-01-28T18:31:40;102229.31;;;-0.21;85.91
29433;BME280;16405;53.964;13.448;2023-01-28T18:34:18;102234.38;;;-0.25;86.08
29433;BME280;16405;53.964;13.448;2023-01-28T18:37:01;102218.84;;;-0.25;85.67
29433;BME280;16405;53.964;13.448;2023-01-28T18:39:39;102217.91;;;-0.29;85.64
29433;BME280;16405;53.964;13.448;2023-01-28T18:42:29;102213.72;;;-0.24;86.19
29433;BME280;16405;53.964;13.448;2023-01-28T18:45:08;102219.00;;;-0.17;86.11
29433;BME280;16405;53.964;13.448;2023-01-28T18:47:37;102222.59;;;-0.12;86.24
29433;BME280;16405;53.964;13.448;2023-01-28T18:52:58;102207.06;;;-0.12;86.31
29433;BME280;16405;53.964;13.448;2023-01-28T18:55:36;102212.28;;;-0.09;86.06
29433;BME280;16405;53.964;13.448;2023-01-28T18:58:10;102204.59;;;-0.05;85.98
29433;BME280;16405;53.964;13.448;2023-01-28T19:00:37;102210.72;;;-0.01;85.67
29433;BME280;16405;53.964;13.448;2023-01-28T19:03:06;102213.38;;;0.01;85.97
29433;BME280;16405;53.964;13.448;2023-01-28T19:05:43;102216.09;;;0.07;85.49
29433;BME280;16405;53.964;13.448;2023-01-28T19:08:21;102218.75;;;0.11;85.19
29433;BME280;16405;53.964;13.448;2023-01-28T19:11:01;102222.28;;;0.15;85.00